Main page
METAR-TAF:

METAR-TAF

Airports :

Guernsey Airport

Guernsey,

latitude: 49-26N, longitude: 002-36W, elevation: 102 m

Current weather observation

The report was made 59 minutes ago, at 19:50 UTC
Wind 8 kt from the Southwest
Temperature 14°C
Humidity 72%
Pressure 1009 hPa
Visibility 10 km or more
Few clouds at a height of 2200 ft
showers in vicinity

METAR: EGJB 251950Z 22008KT 9999 VCSH FEW022 14/09 Q1009

Time: 21:49 (20:49 UTC)

Forecast

The report was made 52 minutes ago, at 19:57 UTC
Forecast valid from 25 at 21 UTC to 26 at 06 UTC
Wind 13 kt from the South/Southwest
Visibility 10 km or more
Few clouds at a height of 2200 ft
Probability 30% :
Temporary
from 25 at 21 UTC to 26 at 00 UTC
Scattered clouds at a height of 1700 ft, Cumulonimbus.

TAF: EGJB 251957Z 2521/2606 21013KT 9999 FEW022 PROB30 TEMPO 2521/2600 SCT017CB

Weather observations and forecasts of more than 4000 airports (METAR and TAF reports).

The available stations are represented by yellow and red dots on the map.

Hover mouse over dot to see the name of the station.

Then click to see weather observations and forecasts.

To change the map : click on the green buttons with a black cross to zoom in, on the green button with a dash to zoom out, or on the green arrows for adjacent maps.


METAR-TAF: